sensor_id;sensor_type;location;lat;lon;timestamp;P1;durP1;ratioP1;P2;durP2;ratioP2
54899;SDS011;40801;41.924;25.562;2023-02-11T00:00:22;23.92;;;17.23;;
54899;SDS011;40801;41.924;25.562;2023-02-11T00:02:47;19.98;;;15.55;;
54899;SDS011;40801;41.924;25.562;2023-02-11T00:05:13;24.35;;;14.98;;
54899;SDS011;40801;41.924;25.562;2023-02-11T00:07:38;23.55;;;17.27;;
54899;SDS011;40801;41.924;25.562;2023-02-11T00:10:04;23.10;;;16.30;;
54899;SDS011;40801;41.924;25.562;2023-02-11T00:12:36;19.67;;;16.15;;
54899;SDS011;40801;41.924;25.562;2023-02-11T00:15:02;19.67;;;14.43;;
54899;SDS011;40801;41.924;25.562;2023-02-11T00:17:29;20.80;;;15.20;;
54899;SDS011;40801;41.924;25.562;2023-02-11T00:19:54;23.70;;;16.83;;
54899;SDS011;40801;41.924;25.562;2023-02-11T00:22:19;22.25;;;17.02;;
54899;SDS011;40801;41.924;25.562;2023-02-11T00:24:45;23.17;;;19.05;;
54899;SDS011;40801;41.924;25.562;2023-02-11T00:27:10;25.42;;;19.60;;
54899;SDS011;40801;41.924;25.562;2023-02-11T00:29:36;24.73;;;20.77;;
54899;SDS011;40801;41.924;25.562;2023-02-11T00:32:02;23.25;;;16.38;;
54899;SDS011;40801;41.924;25.562;2023-02-11T00:34:32;19.40;;;15.38;;
54899;SDS011;40801;41.924;25.562;2023-02-11T00:36:58;21.20;;;14.23;;
54899;SDS011;40801;41.924;25.562;2023-02-11T00:39:24;19.08;;;13.80;;
54899;SDS011;40801;41.924;25.562;2023-02-11T00:41:49;17.98;;;14.60;;
54899;SDS011;40801;41.924;25.562;2023-02-11T00:44:15;18.52;;;14.93;;
54899;SDS011;40801;41.924;25.562;2023-02-11T00:46:40;17.45;;;13.57;;
54899;SDS011;40801;41.924;25.562;2023-02-11T00:49:06;16.08;;;13.20;;
54899;SDS011;40801;41.924;25.562;2023-02-11T00:51:31;17.45;;;14.23;;
54899;SDS011;40801;41.924;25.562;2023-02-11T00:53:57;20.30;;;13.90;;
54899;SDS011;40801;41.924;25.562;2023-02-11T00:56:22;19.55;;;14.30;;
54899;SDS011;40801;41.924;25.562;2023-02-11T00:58:48;15.45;;;12.57;;
54899;SDS011;40801;41.924;25.562;2023-02-11T01:01:13;17.05;;;12.75;;
54899;SDS011;40801;41.924;25.562;2023-02-11T01:03:39;20.45;;;14.00;;
54899;SDS011;40801;41.924;25.562;2023-02-11T01:06:05;18.13;;;12.60;;
54899;SDS011;40801;41.924;25.562;2023-02-11T01:08:32;16.33;;;14.13;;
54899;SDS011;40801;41.924;25.562;2023-02-11T01:10:59;18.65;;;14.40;;
54899;SDS011;40801;41.924;25.562;2023-02-11T01:13:27;17.10;;;13.63;;
54899;SDS011;40801;41.924;25.562;2023-02-11T01:15:55;23.02;;;17.58;;
54899;SDS011;40801;41.924;25.562;2023-02-11T01:18:20;23.08;;;16.48;;
54899;SDS011;40801;41.924;25.562;2023-02-11T01:20:46;23.13;;;16.33;;
54899;SDS011;40801;41.924;25.562;2023-02-11T01:23:11;26.75;;;21.48;;
54899;SDS011;40801;41.924;25.562;2023-02-11T01:25:36;24.52;;;18.75;;
54899;SDS011;40801;41.924;25.562;2023-02-11T01:28:02;23.40;;;18.20;;
54899;SDS011;40801;41.924;25.562;2023-02-11T01:30:27;25.02;;;19.27;;
54899;SDS011;40801;41.924;25.562;2023-02-11T01:32:53;24.10;;;18.45;;
54899;SDS011;40801;41.924;25.562;2023-02-11T01:35:18;23.45;;;17.65;;
54899;SDS011;40801;41.924;25.562;2023-02-11T01:37:44;28.15;;;19.42;;
54899;SDS011;40801;41.924;25.562;2023-02-11T01:40:11;28.58;;;18.33;;
54899;SDS011;40801;41.924;25.562;2023-02-11T01:42:38;35.00;;;24.02;;
54899;SDS011;40801;41.924;25.562;2023-02-11T01:48:07;29.38;;;21.83;;
54899;SDS011;40801;41.924;25.562;2023-02-11T01:50:35;29.23;;;19.80;;
54899;SDS011;40801;41.924;25.562;2023-02-11T01:53:04;25.98;;;18.42;;
54899;SDS011;40801;41.924;25.562;2023-02-11T01:55:49;21.08;;;16.30;;
54899;SDS011;40801;41.924;25.562;2023-02-11T01:58:35;24.00;;;15.95;;
54899;SDS011;40801;41.924;25.562;2023-02-11T02:01:04;19.15;;;15.50;;
54899;SDS011;40801;41.924;25.562;2023-02-11T02:03:32;21.65;;;15.32;;
54899;SDS011;40801;41.924;25.562;2023-02-11T02:06:05;20.30;;;13.68;;
54899;SDS011;40801;41.924;25.562;2023-02-11T02:08:56;17.70;;;12.65;;
54899;SDS011;40801;41.924;25.562;2023-02-11T02:11:44;16.40;;;13.15;;
54899;SDS011;40801;41.924;25.562;2023-02-11T02:14:09;15.75;;;13.30;;
54899;SDS011;40801;41.924;25.562;2023-02-11T02:16:35;18.75;;;12.75;;
54899;SDS011;40801;41.924;25.562;2023-02-11T02:35:57;17.90;;;13.75;;
54899;SDS011;40801;41.924;25.562;2023-02-11T02:41:10;18.00;;;11.27;;
54899;SDS011;40801;41.924;25.562;2023-02-11T02:43:42;15.43;;;11.85;;
54899;SDS011;40801;41.924;25.562;2023-02-11T02:46:10;19.83;;;13.85;;
54899;SDS011;40801;41.924;25.562;2023-02-11T02:48:45;17.30;;;12.88;;
54899;SDS011;40801;41.924;25.562;2023-02-11T03:10:31;14.63;;;11.32;;
54899;SDS011;40801;41.924;25.562;2023-02-11T03:13:00;17.42;;;13.60;;
54899;SDS011;40801;41.924;25.562;2023-02-11T03:15:29;16.48;;;13.25;;
54899;SDS011;40801;41.924;25.562;2023-02-11T03:17:59;15.05;;;12.52;;
54899;SDS011;40801;41.924;25.562;2023-02-11T03:20:27;17.65;;;12.82;;
54899;SDS011;40801;41.924;25.562;2023-02-11T03:22:59;15.63;;;13.00;;
54899;SDS011;40801;41.924;25.562;2023-02-11T03:25:40;13.40;;;11.30;;
54899;SDS011;40801;41.924;25.562;2023-02-11T03:28:20;21.58;;;12.98;;
54899;SDS011;40801;41.924;25.562;2023-02-11T03:31:19;19.70;;;12.73;;
54899;SDS011;40801;41.924;25.562;2023-02-11T03:36:45;17.10;;;12.95;;
54899;SDS011;40801;41.924;25.562;2023-02-11T03:39:20;53.22;;;32.85;;
54899;SDS011;40801;41.924;25.562;2023-02-11T03:41:51;27.25;;;18.95;;
54899;SDS011;40801;41.924;25.562;2023-02-11T03:44:19;21.70;;;15.60;;
54899;SDS011;40801;41.924;25.562;2023-02-11T03:46:47;17.58;;;13.07;;
54899;SDS011;40801;41.924;25.562;2023-02-11T03:49:16;21.10;;;14.07;;
54899;SDS011;40801;41.924;25.562;2023-02-11T03:51:44;17.77;;;14.15;;
54899;SDS011;40801;41.924;25.562;2023-02-11T03:54:13;17.15;;;14.63;;
54899;SDS011;40801;41.924;25.562;2023-02-11T03:56:43;19.05;;;14.45;;
54899;SDS011;40801;41.924;25.562;2023-02-11T03:59:15;18.85;;;14.68;;
54899;SDS011;40801;41.924;25.562;2023-02-11T04:01:40;17.48;;;13.25;;
54899;SDS011;40801;41.924;25.562;2023-02-11T04:04:06;25.38;;;16.92;;
54899;SDS011;40801;41.924;25.562;2023-02-11T04:06:31;32.83;;;24.35;;
54899;SDS011;40801;41.924;25.562;2023-02-11T04:08:56;27.77;;;20.23;;
54899;SDS011;40801;41.924;25.562;2023-02-11T04:11:22;26.10;;;20.05;;
54899;SDS011;40801;41.924;25.562;2023-02-11T04:13:47;20.70;;;13.75;;
54899;SDS011;40801;41.924;25.562;2023-02-11T04:16:13;16.60;;;14.35;;
54899;SDS011;40801;41.924;25.562;2023-02-11T04:18:38;19.48;;;17.23;;
54899;SDS011;40801;41.924;25.562;2023-02-11T04:21:03;19.88;;;14.80;;
54899;SDS011;40801;41.924;25.562;2023-02-11T04:23:29;18.85;;;15.77;;
54899;SDS011;40801;41.924;25.562;2023-02-11T04:25:54;20.17;;;18.00;;
54899;SDS011;40801;41.924;25.562;2023-02-11T04:28:20;17.90;;;14.73;;
54899;SDS011;40801;41.924;25.562;2023-02-11T04:30:45;16.20;;;13.50;;
54899;SDS011;40801;41.924;25.562;2023-02-11T04:33:11;14.05;;;12.60;;
54899;SDS011;40801;41.924;25.562;2023-02-11T04:35:36;16.98;;;13.02;;
54899;SDS011;40801;41.924;25.562;2023-02-11T04:38:01;13.82;;;10.77;;
54899;SDS011;40801;41.924;25.562;2023-02-11T04:40:27;15.35;;;12.75;;
54899;SDS011;40801;41.924;25.562;2023-02-11T04:42:52;17.27;;;12.35;;
54899;SDS011;40801;41.924;25.562;2023-02-11T04:45:18;16.90;;;12.35;;
54899;SDS011;40801;41.924;25.562;2023-02-11T04:47:43;17.15;;;11.73;;
54899;SDS011;40801;41.924;25.562;2023-02-11T04:50:09;18.85;;;14.60;;
54899;SDS011;40801;41.924;25.562;2023-02-11T04:52:34;19.70;;;14.73;;
54899;SDS011;40801;41.924;25.562;2023-02-11T04:55:00;24.90;;;16.10;;
54899;SDS011;40801;41.924;25.562;2023-02-11T04:57:25;21.75;;;15.25;;
54899;SDS011;40801;41.924;25.562;2023-02-11T04:59:50;19.77;;;14.80;;
54899;SDS011;40801;41.924;25.562;2023-02-11T05:02:16;18.25;;;15.88;;
54899;SDS011;40801;41.924;25.562;2023-02-11T05:04:41;21.30;;;17.52;;
54899;SDS011;40801;41.924;25.562;2023-02-11T05:07:06;21.20;;;15.32;;
54899;SDS011;40801;41.924;25.562;2023-02-11T05:09:32;18.48;;;14.07;;
54899;SDS011;40801;41.924;25.562;2023-02-11T05:11:57;21.95;;;15.70;;
54899;SDS011;40801;41.924;25.562;2023-02-11T05:14:23;22.52;;;17.50;;
54899;SDS011;40801;41.924;25.562;2023-02-11T05:16:48;18.50;;;15.35;;
54899;SDS011;40801;41.924;25.562;2023-02-11T05:19:13;24.60;;;15.75;;
54899;SDS011;40801;41.924;25.562;2023-02-11T05:21:39;18.88;;;16.77;;
54899;SDS011;40801;41.924;25.562;2023-02-11T05:24:06;25.23;;;17.45;;
54899;SDS011;40801;41.924;25.562;2023-02-11T05:26:31;25.48;;;18.67;;
54899;SDS011;40801;41.924;25.562;2023-02-11T05:28:57;20.85;;;15.60;;
54899;SDS011;40801;41.924;25.562;2023-02-11T05:31:23;24.17;;;18.90;;
54899;SDS011;40801;41.924;25.562;2023-02-11T05:33:48;24.10;;;16.25;;
54899;SDS011;40801;41.924;25.562;2023-02-11T05:36:14;21.40;;;15.20;;
54899;SDS011;40801;41.924;25.562;2023-02-11T05:38:40;22.27;;;16.80;;
54899;SDS011;40801;41.924;25.562;2023-02-11T05:41:07;22.60;;;16.73;;
54899;SDS011;40801;41.924;25.562;2023-02-11T05:43:33;23.90;;;17.45;;
54899;SDS011;40801;41.924;25.562;2023-02-11T05:45:59;24.92;;;18.02;;
54899;SDS011;40801;41.924;25.562;2023-02-11T05:48:25;24.50;;;17.27;;
54899;SDS011;40801;41.924;25.562;2023-02-11T05:50:50;19.85;;;15.70;;
54899;SDS011;40801;41.924;25.562;2023-02-11T05:53:16;26.50;;;18.90;;
54899;SDS011;40801;41.924;25.562;2023-02-11T05:55:41;41.15;;;28.45;;
54899;SDS011;40801;41.924;25.562;2023-02-11T05:58:07;34.65;;;27.63;;
54899;SDS011;40801;41.924;25.562;2023-02-11T06:00:33;35.92;;;27.85;;
54899;SDS011;40801;41.924;25.562;2023-02-11T06:02:58;37.40;;;24.95;;
54899;SDS011;40801;41.924;25.562;2023-02-11T06:05:24;35.78;;;25.48;;
54899;SDS011;40801;41.924;25.562;2023-02-11T06:07:50;31.98;;;22.25;;
54899;SDS011;40801;41.924;25.562;2023-02-11T06:10:16;37.72;;;26.48;;
54899;SDS011;40801;41.924;25.562;2023-02-11T06:12:41;34.60;;;23.73;;
54899;SDS011;40801;41.924;25.562;2023-02-11T06:15:07;36.33;;;27.15;;
54899;SDS011;40801;41.924;25.562;2023-02-11T06:17:32;43.38;;;27.55;;
54899;SDS011;40801;41.924;25.562;2023-02-11T06:20:00;42.92;;;31.08;;
54899;SDS011;40801;41.924;25.562;2023-02-11T06:22:27;45.00;;;34.95;;
54899;SDS011;40801;41.924;25.562;2023-02-11T06:24:53;44.67;;;34.42;;
54899;SDS011;40801;41.924;25.562;2023-02-11T06:27:18;52.85;;;36.65;;
54899;SDS011;40801;41.924;25.562;2023-02-11T06:29:44;55.28;;;40.40;;
54899;SDS011;40801;41.924;25.562;2023-02-11T06:32:10;64.05;;;43.05;;
54899;SDS011;40801;41.924;25.562;2023-02-11T06:34:35;60.38;;;38.10;;
54899;SDS011;40801;41.924;25.562;2023-02-11T06:37:01;43.45;;;33.13;;
54899;SDS011;40801;41.924;25.562;2023-02-11T06:39:27;45.55;;;33.95;;
54899;SDS011;40801;41.924;25.562;2023-02-11T06:41:53;45.55;;;32.25;;
54899;SDS011;40801;41.924;25.562;2023-02-11T06:44:18;43.58;;;33.47;;
54899;SDS011;40801;41.924;25.562;2023-02-11T06:46:43;38.13;;;29.25;;
54899;SDS011;40801;41.924;25.562;2023-02-11T06:49:09;36.10;;;27.17;;
54899;SDS011;40801;41.924;25.562;2023-02-11T06:51:34;35.08;;;27.25;;
54899;SDS011;40801;41.924;25.562;2023-02-11T06:54:00;39.53;;;28.55;;
54899;SDS011;40801;41.924;25.562;2023-02-11T06:56:25;36.80;;;28.83;;
54899;SDS011;40801;41.924;25.562;2023-02-11T06:58:54;40.78;;;29.35;;
54899;SDS011;40801;41.924;25.562;2023-02-11T07:01:20;52.65;;;38.70;;
54899;SDS011;40801;41.924;25.562;2023-02-11T07:03:46;69.85;;;48.28;;
54899;SDS011;40801;41.924;25.562;2023-02-11T07:06:13;84.18;;;56.65;;
54899;SDS011;40801;41.924;25.562;2023-02-11T07:08:40;75.22;;;53.20;;
54899;SDS011;40801;41.924;25.562;2023-02-11T07:11:11;72.20;;;52.85;;
54899;SDS011;40801;41.924;25.562;2023-02-11T07:13:38;75.45;;;55.40;;
54899;SDS011;40801;41.924;25.562;2023-02-11T07:16:05;78.43;;;57.72;;
54899;SDS011;40801;41.924;25.562;2023-02-11T07:18:31;76.93;;;53.47;;
54899;SDS011;40801;41.924;25.562;2023-02-11T07:20:57;85.60;;;62.08;;
54899;SDS011;40801;41.924;25.562;2023-02-11T07:23:22;57.50;;;49.70;;
54899;SDS011;40801;41.924;25.562;2023-02-11T07:25:48;29.13;;;24.83;;
54899;SDS011;40801;41.924;25.562;2023-02-11T07:28:13;192.30;;;133.25;;
54899;SDS011;40801;41.924;25.562;2023-02-11T07:30:39;319.60;;;259.17;;
54899;SDS011;40801;41.924;25.562;2023-02-11T07:33:04;37.05;;;33.10;;
54899;SDS011;40801;41.924;25.562;2023-02-11T07:35:29;33.75;;;30.17;;
54899;SDS011;40801;41.924;25.562;2023-02-11T07:37:55;50.75;;;46.65;;
54899;SDS011;40801;41.924;25.562;2023-02-11T07:40:20;35.78;;;32.03;;
54899;SDS011;40801;41.924;25.562;2023-02-11T07:42:46;31.83;;;25.42;;
54899;SDS011;40801;41.924;25.562;2023-02-11T07:45:11;38.40;;;33.33;;
54899;SDS011;40801;41.924;25.562;2023-02-11T07:47:38;30.10;;;26.85;;
54899;SDS011;40801;41.924;25.562;2023-02-11T07:50:03;75.47;;;68.07;;
54899;SDS011;40801;41.924;25.562;2023-02-11T07:52:29;25.85;;;22.77;;
54899;SDS011;40801;41.924;25.562;2023-02-11T07:54:55;65.55;;;56.67;;
54899;SDS011;40801;41.924;25.562;2023-02-11T07:57:21;25.52;;;18.70;;
54899;SDS011;40801;41.924;25.562;2023-02-11T07:59:46;38.90;;;30.52;;
54899;SDS011;40801;41.924;25.562;2023-02-11T08:02:12;22.90;;;20.52;;
54899;SDS011;40801;41.924;25.562;2023-02-11T08:04:37;22.50;;;18.52;;
54899;SDS011;40801;41.924;25.562;2023-02-11T08:07:02;21.73;;;19.38;;
54899;SDS011;40801;41.924;25.562;2023-02-11T08:09:29;19.38;;;17.00;;
54899;SDS011;40801;41.924;25.562;2023-02-11T08:11:54;22.65;;;20.05;;
54899;SDS011;40801;41.924;25.562;2023-02-11T08:14:20;19.60;;;17.52;;
54899;SDS011;40801;41.924;25.562;2023-02-11T08:16:45;21.52;;;19.15;;
54899;SDS011;40801;41.924;25.562;2023-02-11T08:19:12;19.48;;;16.90;;
54899;SDS011;40801;41.924;25.562;2023-02-11T08:21:39;26.27;;;20.23;;
54899;SDS011;40801;41.924;25.562;2023-02-11T08:24:05;20.75;;;18.38;;
54899;SDS011;40801;41.924;25.562;2023-02-11T08:26:32;23.02;;;19.92;;
54899;SDS011;40801;41.924;25.562;2023-02-11T08:28:59;20.95;;;18.02;;
54899;SDS011;40801;41.924;25.562;2023-02-11T08:31:33;23.75;;;21.20;;
54899;SDS011;40801;41.924;25.562;2023-02-11T08:34:00;25.77;;;21.75;;
54899;SDS011;40801;41.924;25.562;2023-02-11T08:36:32;19.98;;;17.88;;
54899;SDS011;40801;41.924;25.562;2023-02-11T08:39:00;29.17;;;23.92;;
54899;SDS011;40801;41.924;25.562;2023-02-11T08:41:28;18.40;;;16.52;;
54899;SDS011;40801;41.924;25.562;2023-02-11T08:43:54;21.38;;;18.98;;
54899;SDS011;40801;41.924;25.562;2023-02-11T08:46:20;20.25;;;18.15;;
54899;SDS011;40801;41.924;25.562;2023-02-11T08:48:45;18.92;;;17.02;;
54899;SDS011;40801;41.924;25.562;2023-02-11T08:51:13;17.88;;;15.95;;
54899;SDS011;40801;41.924;25.562;2023-02-11T08:53:44;17.08;;;15.27;;
54899;SDS011;40801;41.924;25.562;2023-02-11T08:56:10;21.98;;;19.58;;
54899;SDS011;40801;41.924;25.562;2023-02-11T08:58:37;20.20;;;18.00;;
54899;SDS011;40801;41.924;25.562;2023-02-11T09:01:12;20.27;;;17.15;;
54899;SDS011;40801;41.924;25.562;2023-02-11T09:03:39;18.95;;;16.92;;
54899;SDS011;40801;41.924;25.562;2023-02-11T09:06:05;23.88;;;21.40;;
54899;SDS011;40801;41.924;25.562;2023-02-11T09:08:35;19.15;;;17.08;;
54899;SDS011;40801;41.924;25.562;2023-02-11T09:11:02;15.27;;;13.77;;
54899;SDS011;40801;41.924;25.562;2023-02-11T09:13:28;17.90;;;14.98;;
54899;SDS011;40801;41.924;25.562;2023-02-11T09:15:54;22.25;;;19.85;;
54899;SDS011;40801;41.924;25.562;2023-02-11T09:18:20;17.80;;;15.98;;
54899;SDS011;40801;41.924;25.562;2023-02-11T09:20:45;17.10;;;15.32;;
54899;SDS011;40801;41.924;25.562;2023-02-11T09:23:11;20.83;;;18.30;;
54899;SDS011;40801;41.924;25.562;2023-02-11T09:25:39;21.23;;;18.88;;
54899;SDS011;40801;41.924;25.562;2023-02-11T09:28:05;18.25;;;16.48;;
54899;SDS011;40801;41.924;25.562;2023-02-11T09:30:32;22.20;;;19.77;;
54899;SDS011;40801;41.924;25.562;2023-02-11T09:32:57;19.25;;;17.25;;
54899;SDS011;40801;41.924;25.562;2023-02-11T09:35:23;19.75;;;17.70;;
54899;SDS011;40801;41.924;25.562;2023-02-11T09:37:48;22.23;;;19.83;;
54899;SDS011;40801;41.924;25.562;2023-02-11T09:40:14;26.23;;;23.42;;
54899;SDS011;40801;41.924;25.562;2023-02-11T09:45:28;22.13;;;19.83;;
54899;SDS011;40801;41.924;25.562;2023-02-11T09:48:16;20.90;;;18.70;;
54899;SDS011;40801;41.924;25.562;2023-02-11T09:50:53;19.73;;;17.58;;
54899;SDS011;40801;41.924;25.562;2023-02-11T09:53:28;20.50;;;18.27;;
54899;SDS011;40801;41.924;25.562;2023-02-11T09:56:00;22.73;;;19.83;;
54899;SDS011;40801;41.924;25.562;2023-02-11T09:58:34;21.13;;;19.02;;
54899;SDS011;40801;41.924;25.562;2023-02-11T10:07:07;22.05;;;16.33;;
54899;SDS011;40801;41.924;25.562;2023-02-11T10:23:24;20.45;;;18.23;;
54899;SDS011;40801;41.924;25.562;2023-02-11T10:28:28;21.85;;;19.67;;
54899;SDS011;40801;41.924;25.562;2023-02-11T10:36:15;20.02;;;18.02;;
54899;SDS011;40801;41.924;25.562;2023-02-11T10:38:42;25.58;;;21.33;;
54899;SDS011;40801;41.924;25.562;2023-02-11T10:41:19;21.83;;;17.38;;
54899;SDS011;40801;41.924;25.562;2023-02-11T10:43:50;16.42;;;14.13;;
54899;SDS011;40801;41.924;25.562;2023-02-11T10:46:16;14.80;;;13.40;;
54899;SDS011;40801;41.924;25.562;2023-02-11T10:48:47;17.55;;;15.80;;
54899;SDS011;40801;41.924;25.562;2023-02-11T10:53:44;24.93;;;19.63;;
54899;SDS011;40801;41.924;25.562;2023-02-11T10:56:13;23.63;;;20.30;;
54899;SDS011;40801;41.924;25.562;2023-02-11T10:58:59;20.42;;;18.60;;
54899;SDS011;40801;41.924;25.562;2023-02-11T11:01:38;18.63;;;16.77;;
54899;SDS011;40801;41.924;25.562;2023-02-11T11:09:43;21.25;;;19.17;;
54899;SDS011;40801;41.924;25.562;2023-02-11T11:12:57;23.45;;;21.08;;
54899;SDS011;40801;41.924;25.562;2023-02-11T11:17:35;21.10;;;19.05;;
54899;SDS011;40801;41.924;25.562;2023-02-11T11:20:14;26.52;;;23.80;;
54899;SDS011;40801;41.924;25.562;2023-02-11T11:22:51;19.90;;;17.70;;
54899;SDS011;40801;41.924;25.562;2023-02-11T11:25:39;20.50;;;18.48;;
54899;SDS011;40801;41.924;25.562;2023-02-11T11:28:18;21.92;;;19.65;;
54899;SDS011;40801;41.924;25.562;2023-02-11T11:30:46;17.98;;;16.27;;
54899;SDS011;40801;41.924;25.562;2023-02-11T11:33:23;18.13;;;16.40;;
54899;SDS011;40801;41.924;25.562;2023-02-11T11:35:55;20.83;;;17.98;;
54899;SDS011;40801;41.924;25.562;2023-02-11T11:38:21;36.30;;;33.00;;
54899;SDS011;40801;41.924;25.562;2023-02-11T11:40:47;19.23;;;17.27;;
54899;SDS011;40801;41.924;25.562;2023-02-11T11:43:53;23.35;;;21.15;;
54899;SDS011;40801;41.924;25.562;2023-02-11T11:46:22;18.65;;;16.63;;
54899;SDS011;40801;41.924;25.562;2023-02-11T11:52:36;20.80;;;18.70;;
54899;SDS011;40801;41.924;25.562;2023-02-11T11:55:19;21.95;;;19.65;;
54899;SDS011;40801;41.924;25.562;2023-02-11T11:57:48;21.98;;;19.05;;
54899;SDS011;40801;41.924;25.562;2023-02-11T12:00:25;20.48;;;18.38;;
54899;SDS011;40801;41.924;25.562;2023-02-11T12:03:45;17.25;;;15.68;;
54899;SDS011;40801;41.924;25.562;2023-02-11T12:44:49;12.65;;;11.35;;
54899;SDS011;40801;41.924;25.562;2023-02-11T12:50:03;18.23;;;16.40;;
54899;SDS011;40801;41.924;25.562;2023-02-11T12:55:06;13.68;;;12.35;;
54899;SDS011;40801;41.924;25.562;2023-02-11T12:57:40;12.55;;;11.25;;
54899;SDS011;40801;41.924;25.562;2023-02-11T13:03:23;11.10;;;10.00;;
54899;SDS011;40801;41.924;25.562;2023-02-11T13:05:57;10.40;;;9.40;;
54899;SDS011;40801;41.924;25.562;2023-02-11T13:08:29;13.50;;;9.43;;
54899;SDS011;40801;41.924;25.562;2023-02-11T13:10:59;13.32;;;12.02;;
54899;SDS011;40801;41.924;25.562;2023-02-11T13:13:32;9.65;;;8.85;;
54899;SDS011;40801;41.924;25.562;2023-02-11T13:18:44;10.32;;;9.43;;
54899;SDS011;40801;41.924;25.562;2023-02-11T13:23:47;10.82;;;9.85;;
54899;SDS011;40801;41.924;25.562;2023-02-11T13:26:29;9.02;;;8.23;;
54899;SDS011;40801;41.924;25.562;2023-02-11T13:29:46;10.20;;;9.13;;
54899;SDS011;40801;41.924;25.562;2023-02-11T13:32:27;17.98;;;16.52;;
54899;SDS011;40801;41.924;25.562;2023-02-11T13:35:29;13.68;;;12.57;;
54899;SDS011;40801;41.924;25.562;2023-02-11T13:37:59;13.52;;;12.38;;
54899;SDS011;40801;41.924;25.562;2023-02-11T13:40:57;55.13;;;49.17;;
54899;SDS011;40801;41.924;25.562;2023-02-11T13:43:29;17.35;;;13.55;;
54899;SDS011;40801;41.924;25.562;2023-02-11T13:46:04;11.55;;;10.43;;
54899;SDS011;40801;41.924;25.562;2023-02-11T13:48:34;10.57;;;9.52;;
54899;SDS011;40801;41.924;25.562;2023-02-11T13:51:04;12.87;;;7.40;;
54899;SDS011;40801;41.924;25.562;2023-02-11T13:54:17;54.53;;;29.95;;
54899;SDS011;40801;41.924;25.562;2023-02-11T13:59:05;7.10;;;6.50;;
54899;SDS011;40801;41.924;25.562;2023-02-11T14:05:43;20.63;;;13.18;;
54899;SDS011;40801;41.924;25.562;2023-02-11T14:10:50;58.28;;;46.90;;
54899;SDS011;40801;41.924;25.562;2023-02-11T14:13:34;40.58;;;37.35;;
54899;SDS011;40801;41.924;25.562;2023-02-11T14:16:08;15.18;;;13.73;;
54899;SDS011;40801;41.924;25.562;2023-02-11T14:24:38;33.65;;;28.05;;
54899;SDS011;40801;41.924;25.562;2023-02-11T14:26:45;23.25;;;20.42;;
54899;SDS011;40801;41.924;25.562;2023-02-11T14:29:16;24.65;;;20.17;;
54899;SDS011;40801;41.924;25.562;2023-02-11T14:34:38;23.25;;;20.77;;
54899;SDS011;40801;41.924;25.562;2023-02-11T14:37:29;54.35;;;45.22;;
54899;SDS011;40801;41.924;25.562;2023-02-11T14:40:18;31.00;;;26.42;;
54899;SDS011;40801;41.924;25.562;2023-02-11T14:42:46;64.50;;;40.72;;
54899;SDS011;40801;41.924;25.562;2023-02-11T14:45:17;43.33;;;34.08;;
54899;SDS011;40801;41.924;25.562;2023-02-11T14:47:47;49.30;;;39.33;;
54899;SDS011;40801;41.924;25.562;2023-02-11T14:50:21;55.17;;;45.38;;
54899;SDS011;40801;41.924;25.562;2023-02-11T14:52:50;67.30;;;47.55;;
54899;SDS011;40801;41.924;25.562;2023-02-11T14:58:11;58.83;;;47.55;;
54899;SDS011;40801;41.924;25.562;2023-02-11T15:03:31;36.72;;;29.25;;
54899;SDS011;40801;41.924;25.562;2023-02-11T15:06:20;48.80;;;39.88;;
54899;SDS011;40801;41.924;25.562;2023-02-11T15:11:19;42.60;;;37.30;;
54899;SDS011;40801;41.924;25.562;2023-02-11T15:13:46;34.90;;;28.00;;
54899;SDS011;40801;41.924;25.562;2023-02-11T15:16:15;57.67;;;46.05;;
54899;SDS011;40801;41.924;25.562;2023-02-11T15:18:44;64.22;;;52.38;;
54899;SDS011;40801;41.924;25.562;2023-02-11T15:21:18;52.30;;;45.15;;
54899;SDS011;40801;41.924;25.562;2023-02-11T15:23:56;68.13;;;57.40;;
54899;SDS011;40801;41.924;25.562;2023-02-11T15:26:32;80.47;;;64.05;;
54899;SDS011;40801;41.924;25.562;2023-02-11T15:28:57;85.50;;;64.85;;
54899;SDS011;40801;41.924;25.562;2023-02-11T15:31:24;95.00;;;64.80;;
54899;SDS011;40801;41.924;25.562;2023-02-11T15:33:51;80.18;;;62.08;;
54899;SDS011;40801;41.924;25.562;2023-02-11T15:36:19;73.47;;;58.20;;
54899;SDS011;40801;41.924;25.562;2023-02-11T15:41:43;97.97;;;67.28;;
54899;SDS011;40801;41.924;25.562;2023-02-11T15:44:30;96.40;;;67.05;;
54899;SDS011;40801;41.924;25.562;2023-02-11T15:46:57;88.78;;;63.45;;
54899;SDS011;40801;41.924;25.562;2023-02-11T15:49:23;87.07;;;62.35;;
54899;SDS011;40801;41.924;25.562;2023-02-11T15:51:50;84.55;;;58.72;;
54899;SDS011;40801;41.924;25.562;2023-02-11T15:54:19;80.60;;;60.25;;
54899;SDS011;40801;41.924;25.562;2023-02-11T15:56:50;98.35;;;66.45;;
54899;SDS011;40801;41.924;25.562;2023-02-11T15:59:52;95.80;;;70.10;;
54899;SDS011;40801;41.924;25.562;2023-02-11T16:02:16;97.55;;;70.05;;
54899;SDS011;40801;41.924;25.562;2023-02-11T16:04:48;96.57;;;68.13;;
54899;SDS011;40801;41.924;25.562;2023-02-11T16:12:49;105.57;;;79.03;;
54899;SDS011;40801;41.924;25.562;2023-02-11T16:15:51;102.32;;;74.88;;
54899;SDS011;40801;41.924;25.562;2023-02-11T16:20:57;94.00;;;74.32;;
54899;SDS011;40801;41.924;25.562;2023-02-11T16:23:28;98.95;;;77.65;;
54899;SDS011;40801;41.924;25.562;2023-02-11T16:26:00;109.18;;;78.90;;
54899;SDS011;40801;41.924;25.562;2023-02-11T16:28:32;112.88;;;84.97;;
54899;SDS011;40801;41.924;25.562;2023-02-11T16:30:58;116.30;;;88.40;;
54899;SDS011;40801;41.924;25.562;2023-02-11T16:33:23;115.97;;;90.45;;
54899;SDS011;40801;41.924;25.562;2023-02-11T16:35:49;119.07;;;92.45;;
54899;SDS011;40801;41.924;25.562;2023-02-11T16:38:15;124.25;;;95.13;;
54899;SDS011;40801;41.924;25.562;2023-02-11T16:40:41;122.28;;;93.40;;
54899;SDS011;40801;41.924;25.562;2023-02-11T16:43:10;131.18;;;100.95;;
54899;SDS011;40801;41.924;25.562;2023-02-11T16:45:36;132.25;;;101.53;;
54899;SDS011;40801;41.924;25.562;2023-02-11T16:48:04;127.78;;;91.22;;
54899;SDS011;40801;41.924;25.562;2023-02-11T16:50:31;125.88;;;95.22;;
54899;SDS011;40801;41.924;25.562;2023-02-11T16:52:58;121.75;;;92.65;;
54899;SDS011;40801;41.924;25.562;2023-02-11T16:55:23;131.98;;;95.95;;
54899;SDS011;40801;41.924;25.562;2023-02-11T16:57:49;108.20;;;83.90;;
54899;SDS011;40801;41.924;25.562;2023-02-11T17:00:15;94.35;;;77.22;;
54899;SDS011;40801;41.924;25.562;2023-02-11T17:02:41;91.13;;;70.43;;
54899;SDS011;40801;41.924;25.562;2023-02-11T17:05:07;83.25;;;64.70;;
54899;SDS011;40801;41.924;25.562;2023-02-11T17:07:39;88.32;;;67.90;;
54899;SDS011;40801;41.924;25.562;2023-02-11T17:10:11;90.35;;;65.28;;
54899;SDS011;40801;41.924;25.562;2023-02-11T17:12:38;93.88;;;66.75;;
54899;SDS011;40801;41.924;25.562;2023-02-11T17:15:04;101.22;;;71.15;;
54899;SDS011;40801;41.924;25.562;2023-02-11T17:17:30;92.65;;;72.30;;
54899;SDS011;40801;41.924;25.562;2023-02-11T17:19:55;87.38;;;64.28;;